< < Back
Terminal Aerodrome Forecast


Current Version              Previous Versions:   1  2  3  4  5  6  7  8  9  

Terminal Aerodrome Forecast

946
FTUS42 KFFC 271732
TAFPDK
TAF
KPDK 271732Z 2718/2818 14007KT P6SM SCT050 SCT070
     FM280000 11003KT P6SM FEW060 SCT250
     FM281700 09005KT P6SM SCT045 SCT250=



Latest METAR

424
SAUS70 KWBC 271800 RRI
MTRPDK
METAR KPDK 271753Z 11006KT 10SM CLR 28/16 A3011 RMK AO2 SLP179 T02780161
10278 20206 58008


USA.gov is the U.S. government's official web portal to all federal, state and local government web resources and services.